createdAt,value
2023-02-05T00:00:10.837Z,102846.38
2023-02-05T00:02:38.388Z,102857.72
2023-02-05T00:05:06.616Z,102852.44
2023-02-05T00:07:34.306Z,102863.38
2023-02-05T00:10:01.855Z,102852.06
2023-02-05T00:12:29.406Z,102843.28
2023-02-05T00:14:58.348Z,102841.31
2023-02-05T00:17:25.992Z,102841.03
2023-02-05T00:19:53.596Z,102833.09
2023-02-05T00:22:21.143Z,102839.44
2023-02-05T00:24:48.737Z,102839.34
2023-02-05T00:27:16.365Z,102837.84
2023-02-05T00:29:43.964Z,102835.66
2023-02-05T00:32:12.905Z,102837.38
2023-02-05T00:34:40.551Z,102837.94
2023-02-05T00:37:08.155Z,102833.84
2023-02-05T00:39:35.873Z,102830.72
2023-02-05T00:42:03.565Z,102827.13
2023-02-05T00:44:31.139Z,102812.25
2023-02-05T00:46:58.717Z,102812.44
2023-02-05T00:49:27.852Z,102809.53
2023-02-05T00:51:55.502Z,102814.25
2023-02-05T00:54:23.152Z,102812.28
2023-02-05T00:56:50.693Z,102812.09
2023-02-05T00:59:22.671Z,102809.25
2023-02-05T01:01:53.832Z,102822.69
2023-02-05T01:04:21.607Z,102822.97
2023-02-05T01:06:50.603Z,102813.28
2023-02-05T01:09:18.222Z,102807.13
2023-02-05T01:11:45.811Z,102806.88
2023-02-05T01:14:13.492Z,102801.69
2023-02-05T01:16:41.204Z,102789.00
2023-02-05T01:19:08.861Z,102785.72
2023-02-05T01:21:36.530Z,102786.53
2023-02-05T01:24:06.530Z,102783.72
2023-02-05T01:26:34.146Z,102789.91
2023-02-05T01:29:01.842Z,102799.63
2023-02-05T01:31:29.953Z,102798.59
2023-02-05T01:33:57.584Z,102790.25
2023-02-05T01:36:25.231Z,102793.50
2023-02-05T01:38:54.317Z,102791.78
2023-02-05T01:41:23.343Z,102785.47
2023-02-05T01:44:07.827Z,102784.84
2023-02-05T01:46:36.342Z,102772.47
2023-02-05T01:49:04.904Z,102765.22
2023-02-05T01:51:33.115Z,102750.34
2023-02-05T01:54:00.973Z,102750.34
2023-02-05T01:56:32.872Z,102750.81
2023-02-05T01:59:02.168Z,102743.81
2023-02-05T02:01:29.665Z,102745.19
2023-02-05T02:03:58.073Z,102746.25
2023-02-05T02:06:25.608Z,102753.34
2023-02-05T02:08:53.301Z,102749.06
2023-02-05T02:11:22.909Z,102748.81
2023-02-05T02:13:52.813Z,102750.09
2023-02-05T02:16:20.871Z,102733.44
2023-02-05T02:18:48.690Z,102731.97
2023-02-05T02:21:53.821Z,102732.31
2023-02-05T02:24:31.519Z,102732.50
2023-02-05T02:27:14.924Z,102731.34
2023-02-05T02:29:48.311Z,102728.22
2023-02-05T02:32:20.012Z,102732.09
2023-02-05T02:34:50.295Z,102730.41
2023-02-05T02:37:22.409Z,102712.41
2023-02-05T02:39:56.799Z,102708.59
2023-02-05T02:42:26.522Z,102707.25
2023-02-05T02:44:58.092Z,102707.72
2023-02-05T02:47:30.087Z,102720.75
2023-02-05T02:50:00.614Z,102715.13
2023-02-05T02:52:28.661Z,102719.56
2023-02-05T02:55:00.554Z,102705.47
2023-02-05T02:57:30.208Z,102702.66
2023-02-05T03:00:00.865Z,102696.19
2023-02-05T03:02:30.226Z,102706.38
2023-02-05T03:04:59.751Z,102688.56
2023-02-05T03:07:29.387Z,102683.50
2023-02-05T03:10:01.066Z,102683.44
2023-02-05T03:12:28.685Z,102686.78
2023-02-05T03:14:56.907Z,102677.81
2023-02-05T03:17:26.486Z,102696.16
2023-02-05T03:19:58.846Z,102686.78
2023-02-05T03:22:26.360Z,102688.25
2023-02-05T03:24:54.453Z,102683.75
2023-02-05T03:27:22.357Z,102682.00
2023-02-05T03:29:50.456Z,102681.56
2023-02-05T03:32:27.643Z,102675.44
2023-02-05T03:35:02.936Z,102672.31
2023-02-05T03:37:38.692Z,102670.72
2023-02-05T03:40:12.060Z,102669.22
2023-02-05T03:42:46.767Z,102662.88
2023-02-05T03:45:26.144Z,102660.00
2023-02-05T03:48:06.304Z,102659.09
2023-02-05T03:50:38.994Z,102655.88
2023-02-05T03:53:09.949Z,102667.63
2023-02-05T03:55:40.167Z,102671.91
2023-02-05T03:58:11.328Z,102695.69
2023-02-05T04:00:39.261Z,102706.38
2023-02-05T04:03:08.111Z,102705.34
2023-02-05T04:05:35.988Z,102691.75
2023-02-05T04:08:03.741Z,102689.84
2023-02-05T04:10:31.207Z,102693.59
2023-02-05T04:13:19.804Z,102680.81
2023-02-05T04:15:49.382Z,102679.94
2023-02-05T04:18:18.423Z,102681.47
2023-02-05T04:20:45.910Z,102677.22
2023-02-05T04:23:13.414Z,102676.38
2023-02-05T04:25:41.469Z,102667.25
2023-02-05T04:28:10.413Z,102664.97
2023-02-05T04:30:38.084Z,102664.22
2023-02-05T04:33:05.576Z,102665.88
2023-02-05T04:35:34.687Z,102662.59
2023-02-05T04:38:02.310Z,102667.13
2023-02-05T04:40:29.904Z,102671.16
2023-02-05T04:42:57.377Z,102671.69
2023-02-05T04:45:26.840Z,102646.72
2023-02-05T04:47:54.300Z,102640.66
2023-02-05T04:50:21.747Z,102630.00
2023-02-05T04:52:50.566Z,102632.84
2023-02-05T04:55:18.030Z,102636.53
2023-02-05T04:57:45.462Z,102637.06
2023-02-05T05:00:14.250Z,102651.56
2023-02-05T05:02:41.738Z,102642.91
2023-02-05T05:05:09.434Z,102639.97
2023-02-05T05:07:36.868Z,102648.75
2023-02-05T05:10:08.070Z,102657.94
2023-02-05T05:12:35.879Z,102666.03
2023-02-05T05:15:03.587Z,102661.97
2023-02-05T05:17:31.193Z,102663.47
2023-02-05T05:19:58.629Z,102667.28
2023-02-05T05:22:26.060Z,102667.59
2023-02-05T05:24:53.628Z,102663.34
2023-02-05T05:27:24.205Z,102664.03
2023-02-05T05:29:51.673Z,102661.47
2023-02-05T05:32:19.184Z,102666.84
2023-02-05T05:34:46.686Z,102670.41
2023-02-05T05:37:14.134Z,102668.59
2023-02-05T05:39:59.132Z,102669.47
2023-02-05T05:42:45.695Z,102659.28
2023-02-05T05:45:13.153Z,102657.09
2023-02-05T05:47:40.602Z,102655.50
2023-02-05T05:50:08.611Z,102652.88
2023-02-05T05:52:36.051Z,102652.88
2023-02-05T05:55:03.507Z,102654.63
2023-02-05T05:57:32.315Z,102644.56
2023-02-05T05:59:59.772Z,102653.06
2023-02-05T06:02:27.389Z,102674.56
2023-02-05T06:04:54.903Z,102673.03
2023-02-05T06:07:22.353Z,102674.13
2023-02-05T06:09:50.071Z,102674.50
2023-02-05T06:12:17.509Z,102669.91
2023-02-05T06:14:46.275Z,102661.47
2023-02-05T06:17:13.758Z,102650.75
2023-02-05T06:19:41.219Z,102653.59
2023-02-05T06:22:08.670Z,102657.34
2023-02-05T06:24:36.142Z,102649.78
2023-02-05T06:27:03.771Z,102638.13
2023-02-05T06:29:31.252Z,102629.03
2023-02-05T06:32:00.191Z,102633.91
2023-02-05T06:34:27.712Z,102627.00
2023-02-05T06:36:55.705Z,102629.28
2023-02-05T06:39:25.161Z,102625.19
2023-02-05T06:41:52.785Z,102633.22
2023-02-05T06:44:20.261Z,102627.88
2023-02-05T06:46:47.910Z,102630.97
2023-02-05T06:49:16.763Z,102638.50
2023-02-05T06:51:44.201Z,102632.22
2023-02-05T06:54:11.978Z,102642.34
2023-02-05T06:56:39.469Z,102650.69
2023-02-05T06:59:06.914Z,102655.22
2023-02-05T07:01:34.411Z,102651.81
2023-02-05T07:04:01.981Z,102660.78
2023-02-05T07:06:30.811Z,102669.91
2023-02-05T07:08:59.289Z,102668.59
2023-02-05T07:11:26.859Z,102676.78
2023-02-05T07:13:54.361Z,102668.59
2023-02-05T07:16:21.929Z,102651.38
2023-02-05T07:18:49.575Z,102651.47
2023-02-05T07:21:17.782Z,102655.75
2023-02-05T07:23:46.683Z,102647.00
2023-02-05T07:26:16.927Z,102636.03
2023-02-05T07:28:45.036Z,102609.03
2023-02-05T07:31:15.097Z,102595.88
2023-02-05T07:33:43.320Z,102587.31
2023-02-05T07:36:13.365Z,102578.16
2023-02-05T07:38:40.818Z,102593.31
2023-02-05T07:41:10.776Z,102590.09
2023-02-05T07:43:39.400Z,102596.06
2023-02-05T07:46:08.918Z,102611.94
2023-02-05T07:48:36.778Z,102606.41
2023-02-05T07:51:04.545Z,102615.13
2023-02-05T07:53:32.100Z,102621.19
2023-02-05T07:56:03.486Z,102612.53
2023-02-05T07:58:32.358Z,102610.91
2023-02-05T08:01:01.847Z,102613.63
2023-02-05T08:03:29.437Z,102616.56
2023-02-05T08:05:56.923Z,102618.25
2023-02-05T08:08:25.080Z,102615.44
2023-02-05T08:10:57.336Z,102607.25
2023-02-05T08:13:24.832Z,102601.25
2023-02-05T08:15:53.722Z,102602.56
2023-02-05T08:18:21.246Z,102595.00
2023-02-05T08:20:48.909Z,102589.50
2023-02-05T08:23:16.403Z,102598.78
2023-02-05T08:25:43.867Z,102585.41
2023-02-05T08:28:11.359Z,102582.97
2023-02-05T08:30:39.419Z,102584.09
2023-02-05T08:33:08.221Z,102588.44
2023-02-05T08:35:35.958Z,102585.22
2023-02-05T08:38:03.632Z,102591.25
2023-02-05T08:40:31.210Z,102598.69
2023-02-05T08:43:00.248Z,102608.44
2023-02-05T08:45:28.306Z,102604.22
2023-02-05T08:47:56.863Z,102604.41
2023-02-05T08:50:26.402Z,102594.72
2023-02-05T08:52:53.945Z,102572.91
2023-02-05T08:55:21.508Z,102573.75
2023-02-05T08:57:49.081Z,102572.22
2023-02-05T09:00:17.279Z,102559.72
2023-02-05T09:02:44.864Z,102557.56
2023-02-05T09:05:12.376Z,102549.06
2023-02-05T09:07:42.094Z,102545.03
2023-02-05T09:10:10.393Z,102550.88
2023-02-05T09:12:38.297Z,102544.84
2023-02-05T09:15:06.207Z,102550.88
2023-02-05T09:17:33.692Z,102550.59
2023-02-05T09:20:01.193Z,102556.81
2023-02-05T09:22:28.680Z,102562.28
2023-02-05T09:24:57.474Z,102559.84
2023-02-05T09:27:24.930Z,102556.34
2023-02-05T09:29:52.439Z,102562.94
2023-02-05T09:32:19.895Z,102564.16
2023-02-05T09:34:48.998Z,102560.00
2023-02-05T09:37:16.850Z,102557.28
2023-02-05T09:40:18.949Z,102545.50
2023-02-05T09:42:37.752Z,102547.31
2023-02-05T09:45:14.548Z,102544.03
2023-02-05T09:47:47.339Z,102542.03
2023-02-05T09:50:18.281Z,102536.66
2023-02-05T09:52:50.978Z,102534.13
2023-02-05T09:55:21.810Z,102523.59
2023-02-05T09:57:52.301Z,102522.56
2023-02-05T10:00:22.434Z,102526.03
2023-02-05T10:02:59.971Z,102528.19
2023-02-05T10:05:34.023Z,102519.47
2023-02-05T10:08:08.059Z,102531.97
2023-02-05T10:10:37.902Z,102520.09
2023-02-05T10:13:28.822Z,102517.31
2023-02-05T10:16:25.612Z,102522.00
2023-02-05T10:19:09.276Z,102520.13
2023-02-05T10:21:49.021Z,102517.00
2023-02-05T10:24:33.275Z,102513.63
2023-02-05T10:27:05.590Z,102508.34
2023-02-05T10:29:39.725Z,102516.72
2023-02-05T10:32:16.119Z,102509.78
2023-02-05T10:34:51.585Z,102505.25
2023-02-05T10:37:20.959Z,102503.53
2023-02-05T10:39:49.978Z,102499.41
2023-02-05T10:42:25.603Z,102499.03
2023-02-05T10:45:02.067Z,102502.03
2023-02-05T10:47:41.537Z,102490.69
2023-02-05T10:50:17.869Z,102484.31
2023-02-05T10:52:45.335Z,102483.41
2023-02-05T10:55:13.369Z,102491.50
2023-02-05T10:57:41.139Z,102488.91
2023-02-05T11:00:16.193Z,102481.00
2023-02-05T11:02:46.012Z,102478.47
2023-02-05T11:05:20.294Z,102471.34
2023-02-05T11:07:49.924Z,102482.69
2023-02-05T11:10:20.390Z,102469.72
2023-02-05T11:12:50.209Z,102468.59
2023-02-05T11:15:24.673Z,102462.75
2023-02-05T11:17:53.581Z,102471.44
2023-02-05T11:20:29.102Z,102465.97
2023-02-05T11:23:08.371Z,102461.28
2023-02-05T11:25:36.165Z,102462.13
2023-02-05T11:28:05.511Z,102467.53
2023-02-05T11:30:52.146Z,102456.00
2023-02-05T11:33:28.882Z,102444.69
2023-02-05T11:35:58.733Z,102447.69
2023-02-05T11:38:31.523Z,102441.84
2023-02-05T11:41:00.272Z,102447.88
2023-02-05T11:43:31.489Z,102448.16
2023-02-05T11:46:02.000Z,102447.38
2023-02-05T11:48:35.926Z,102449.66
2023-02-05T11:51:05.077Z,102459.34
2023-02-05T11:53:33.872Z,102456.53
2023-02-05T11:56:04.891Z,102457.53
2023-02-05T11:58:37.256Z,102462.84
2023-02-05T12:01:21.231Z,102456.75
2023-02-05T12:03:59.395Z,102457.94
2023-02-05T12:06:31.771Z,102453.50
2023-02-05T12:08:59.270Z,102453.75
2023-02-05T12:11:54.344Z,102453.56
2023-02-05T12:14:27.450Z,102450.56
2023-02-05T12:17:01.344Z,102452.66
2023-02-05T12:19:34.046Z,102446.13
2023-02-05T12:22:07.268Z,102444.69
2023-02-05T12:24:48.975Z,102437.47
2023-02-05T12:27:31.490Z,102432.34
2023-02-05T12:30:09.675Z,102431.84
2023-02-05T12:32:42.736Z,102438.09
2023-02-05T12:35:23.332Z,102431.75
2023-02-05T12:37:54.917Z,102430.72
2023-02-05T12:40:34.208Z,102424.56
2023-02-05T12:43:07.773Z,102415.31
2023-02-05T12:45:44.889Z,102415.72
2023-02-05T12:48:24.217Z,102421.44
2023-02-05T12:51:04.393Z,102417.31
2023-02-05T12:53:41.076Z,102424.38
2023-02-05T12:56:36.974Z,102424.16
2023-02-05T12:59:08.281Z,102423.75
2023-02-05T13:01:41.759Z,102425.53
2023-02-05T13:04:20.495Z,102416.97
2023-02-05T13:10:19.545Z,102414.41
2023-02-05T13:12:50.616Z,102402.56
2023-02-05T13:15:20.977Z,102401.03
2023-02-05T13:17:56.124Z,102398.06
2023-02-05T13:20:49.563Z,102403.16
2023-02-05T13:23:35.826Z,102397.69
2023-02-05T13:26:22.392Z,102390.84
2023-02-05T13:28:53.088Z,102390.19
2023-02-05T13:31:27.152Z,102389.94
2023-02-05T13:33:56.278Z,102392.00
2023-02-05T13:37:15.057Z,102389.22
2023-02-05T13:39:55.633Z,102385.69
2023-02-05T13:42:53.556Z,102377.25
2023-02-05T13:45:46.712Z,102383.00
2023-02-05T13:48:34.534Z,102387.53
2023-02-05T13:51:31.880Z,102383.03
2023-02-05T13:54:15.160Z,102401.75
2023-02-05T13:56:48.958Z,102406.06
2023-02-05T13:59:19.336Z,102410.25
2023-02-05T14:01:52.178Z,102414.22
2023-02-05T14:04:22.171Z,102408.47
2023-02-05T14:06:57.245Z,102418.19
2023-02-05T14:09:34.335Z,102420.38
2023-02-05T14:12:04.599Z,102419.84
2023-02-05T14:14:34.868Z,102424.47
2023-02-05T14:17:04.204Z,102422.94
2023-02-05T14:19:56.859Z,102432.53
2023-02-05T14:22:36.798Z,102441.56
2023-02-05T14:25:10.628Z,102436.72
2023-02-05T14:27:55.450Z,102431.44
2023-02-05T14:30:51.121Z,102426.00
2023-02-05T14:33:38.591Z,102432.41
2023-02-05T14:36:33.659Z,102434.06
2023-02-05T14:39:04.271Z,102438.81
2023-02-05T14:41:46.847Z,102443.84
2023-02-05T14:44:19.809Z,102437.63
2023-02-05T14:46:56.993Z,102449.47
2023-02-05T14:49:26.604Z,102458.31
2023-02-05T14:51:59.290Z,102462.13
2023-02-05T14:54:28.966Z,102464.69
2023-02-05T14:57:12.746Z,102464.47
2023-02-05T14:59:43.724Z,102468.72
2023-02-05T15:02:49.123Z,102473.91
2023-02-05T15:05:18.571Z,102479.59
2023-02-05T15:07:47.050Z,102480.03
2023-02-05T15:10:19.314Z,102487.44
2023-02-05T15:13:02.814Z,102489.38
2023-02-05T15:15:33.505Z,102486.09
2023-02-05T15:18:16.157Z,102488.13
2023-02-05T15:20:47.372Z,102488.06
2023-02-05T15:23:26.234Z,102493.78
2023-02-05T15:25:59.873Z,102506.78
2023-02-05T15:28:35.782Z,102506.25
2023-02-05T15:31:15.011Z,102505.97
2023-02-05T15:33:55.936Z,102515.06
2023-02-05T15:36:31.647Z,102506.19
2023-02-05T15:39:08.331Z,102514.72
2023-02-05T15:41:37.019Z,102516.81
2023-02-05T15:44:05.958Z,102512.94
2023-02-05T15:46:34.287Z,102528.38
2023-02-05T15:49:02.416Z,102523.41
2023-02-05T15:51:32.276Z,102527.72
2023-02-05T15:54:01.727Z,102535.34
2023-02-05T15:56:32.221Z,102532.59
2023-02-05T15:59:02.178Z,102533.97
2023-02-05T16:01:33.539Z,102537.47
2023-02-05T16:04:01.253Z,102544.66
2023-02-05T16:06:30.845Z,102543.91
2023-02-05T16:08:58.534Z,102552.16
2023-02-05T16:11:31.245Z,102539.34
2023-02-05T16:14:07.116Z,102557.25
2023-02-05T16:16:38.673Z,102561.88
2023-02-05T16:19:10.036Z,102560.31
2023-02-05T16:21:40.122Z,102562.28
2023-02-05T16:24:13.783Z,102579.41
2023-02-05T16:26:44.144Z,102570.66
2023-02-05T16:29:25.680Z,102588.72
2023-02-05T16:32:00.823Z,102591.91
2023-02-05T16:34:29.234Z,102597.09
2023-02-05T16:37:07.214Z,102609.66
2023-02-05T16:39:39.750Z,102609.09
2023-02-05T16:42:09.231Z,102627.09
2023-02-05T16:44:39.076Z,102617.44
2023-02-05T16:47:14.235Z,102629.38
2023-02-05T16:49:43.109Z,102629.72
2023-02-05T16:52:28.471Z,102636.34
2023-02-05T16:54:56.254Z,102641.63
2023-02-05T16:57:28.343Z,102641.31
2023-02-05T16:59:59.489Z,102629.78
2023-02-05T17:02:32.216Z,102636.34
2023-02-05T17:05:02.416Z,102642.06
2023-02-05T17:07:31.590Z,102643.78
2023-02-05T17:10:18.180Z,102637.38
2023-02-05T17:12:55.182Z,102645.59
2023-02-05T17:15:46.417Z,102650.03
2023-02-05T17:18:30.841Z,102648.53
2023-02-05T17:21:29.701Z,102654.22
2023-02-05T17:24:02.007Z,102668.78
2023-02-05T17:26:31.478Z,102664.13
2023-02-05T17:29:01.380Z,102663.69
2023-02-05T17:31:29.496Z,102673.56
2023-02-05T17:33:59.506Z,102668.78
2023-02-05T17:36:27.710Z,102668.47
2023-02-05T17:38:57.662Z,102673.56
2023-02-05T17:41:44.843Z,102681.47
2023-02-05T17:44:13.480Z,102693.16
2023-02-05T17:46:41.477Z,102692.47
2023-02-05T17:49:10.523Z,102687.19
2023-02-05T17:51:41.715Z,102690.78
2023-02-05T17:54:14.020Z,102688.44
2023-02-05T17:56:44.340Z,102680.03
2023-02-05T17:59:12.686Z,102695.22
2023-02-05T18:01:40.563Z,102697.75
2023-02-05T18:04:08.534Z,102712.13
2023-02-05T18:06:38.667Z,102706.44
2023-02-05T18:09:06.921Z,102704.63
2023-02-05T18:11:35.111Z,102714.56
2023-02-05T18:14:02.662Z,102703.91
2023-02-05T18:16:30.581Z,102713.31
2023-02-05T18:18:58.303Z,102709.47
2023-02-05T18:21:25.885Z,102711.34
2023-02-05T18:23:55.136Z,102712.22
2023-02-05T18:26:22.819Z,102727.97
2023-02-05T18:28:51.256Z,102717.03
2023-02-05T18:31:19.038Z,102727.50
2023-02-05T18:33:46.676Z,102722.88
2023-02-05T18:36:15.292Z,102708.28
2023-02-05T18:38:43.970Z,102723.72
2023-02-05T18:41:14.808Z,102724.94
2023-02-05T18:43:42.949Z,102724.94
2023-02-05T18:46:12.056Z,102727.56
2023-02-05T18:48:41.053Z,102731.03
2023-02-05T18:51:10.185Z,102738.88
2023-02-05T18:53:38.951Z,102745.28
2023-02-05T18:56:08.652Z,102747.94
2023-02-05T18:58:37.772Z,102757.97
2023-02-05T19:01:10.389Z,102744.94
2023-02-05T19:03:38.903Z,102743.22
2023-02-05T19:06:07.051Z,102750.97
2023-02-05T19:08:34.776Z,102748.22
2023-02-05T19:11:06.870Z,102739.38
2023-02-05T19:13:36.852Z,102741.88
2023-02-05T19:16:07.590Z,102745.50
2023-02-05T19:18:35.572Z,102757.88
2023-02-05T19:21:06.674Z,102762.28
2023-02-05T19:23:34.783Z,102775.50
2023-02-05T19:26:04.491Z,102767.56
2023-02-05T19:28:32.766Z,102757.97
2023-02-05T19:31:03.776Z,102773.59
2023-02-05T19:33:32.987Z,102780.97
2023-02-05T19:36:01.041Z,102776.63
2023-02-05T19:38:29.246Z,102793.03
2023-02-05T19:40:56.974Z,102802.75
2023-02-05T19:43:24.567Z,102805.41
2023-02-05T19:45:52.267Z,102791.34
2023-02-05T19:48:19.787Z,102803.59
2023-02-05T19:50:48.712Z,102806.22
2023-02-05T19:53:18.399Z,102789.44
2023-02-05T19:55:46.161Z,102792.06
2023-02-05T19:58:14.681Z,102799.06
2023-02-05T20:00:42.782Z,102795.84
2023-02-05T20:03:11.484Z,102799.44
2023-02-05T20:05:39.084Z,102799.63
2023-02-05T20:08:08.010Z,102795.69
2023-02-05T20:10:35.908Z,102798.69
2023-02-05T20:13:03.878Z,102798.50
2023-02-05T20:15:31.446Z,102793.41
2023-02-05T20:17:59.495Z,102807.38
2023-02-05T20:20:33.483Z,102809.06
2023-02-05T20:23:01.745Z,102813.03
2023-02-05T20:25:30.661Z,102808.81
2023-02-05T20:27:58.411Z,102821.91
2023-02-05T20:30:43.852Z,102830.38
2023-02-05T20:33:11.932Z,102841.13
2023-02-05T20:35:40.203Z,102827.19
2023-02-05T20:38:08.494Z,102829.91
2023-02-05T20:40:37.637Z,102841.13
2023-02-05T20:43:07.865Z,102838.94
2023-02-05T20:45:35.488Z,102849.81
2023-02-05T20:48:03.194Z,102852.63
2023-02-05T20:50:30.863Z,102851.03
2023-02-05T20:53:01.054Z,102846.59
2023-02-05T20:55:28.564Z,102847.44
2023-02-05T20:57:57.912Z,102844.41
2023-02-05T21:00:33.225Z,102860.94
2023-02-05T21:03:01.091Z,102848.00
2023-02-05T21:05:28.887Z,102852.25
2023-02-05T21:07:56.504Z,102852.25
2023-02-05T21:10:24.146Z,102847.72
2023-02-05T21:12:51.798Z,102845.84
2023-02-05T21:15:20.857Z,102845.47
2023-02-05T21:17:48.493Z,102849.59
2023-02-05T21:20:16.562Z,102849.59
2023-02-05T21:22:44.189Z,102851.88
2023-02-05T21:25:11.826Z,102870.44
2023-02-05T21:27:40.292Z,102874.97
2023-02-05T21:30:09.152Z,102894.56
2023-02-05T21:32:38.080Z,102892.03
2023-02-05T21:35:06.132Z,102892.03
2023-02-05T21:37:33.751Z,102893.88
2023-02-05T21:40:09.111Z,102888.25
2023-02-05T21:42:37.290Z,102886.66
2023-02-05T21:45:05.474Z,102893.53
2023-02-05T21:47:33.168Z,102891.56
2023-02-05T21:50:02.322Z,102887.59
2023-02-05T21:52:29.948Z,102900.72
2023-02-05T21:54:57.563Z,102903.63
2023-02-05T21:57:25.353Z,102900.03
2023-02-05T21:59:53.498Z,102912.19
2023-02-05T22:02:21.058Z,102910.41
2023-02-05T22:04:48.693Z,102914.66
2023-02-05T22:07:17.630Z,102913.81
2023-02-05T22:09:45.224Z,102919.19
2023-02-05T22:12:12.725Z,102923.16
2023-02-05T22:14:40.235Z,102933.13
2023-02-05T22:17:07.719Z,102931.34
2023-02-05T22:19:35.911Z,102936.13
2023-02-05T22:22:03.550Z,102937.06
2023-02-05T22:24:32.695Z,102931.44
2023-02-05T22:27:00.490Z,102939.25
2023-02-05T22:29:28.093Z,102942.56
2023-02-05T22:31:55.737Z,102949.56
2023-02-05T22:34:23.826Z,102956.78
2023-02-05T22:36:51.676Z,102954.81
2023-02-05T22:39:19.209Z,102950.59
2023-02-05T22:41:48.079Z,102958.59
2023-02-05T22:44:15.580Z,102960.56
2023-02-05T22:46:44.957Z,102954.69
2023-02-05T22:49:15.071Z,102951.31
2023-02-05T22:51:42.736Z,102954.88
2023-02-05T22:54:12.942Z,102957.59
2023-02-05T22:56:40.698Z,102948.44
2023-02-05T22:59:09.838Z,102957.22
2023-02-05T23:01:38.984Z,102962.75
2023-02-05T23:04:07.939Z,102974.72
2023-02-05T23:06:37.374Z,102966.72
2023-02-05T23:09:07.561Z,102968.31
2023-02-05T23:11:35.907Z,102966.81
2023-02-05T23:14:05.342Z,102969.88
2023-02-05T23:16:36.085Z,102977.69
2023-02-05T23:19:05.838Z,102964.50
2023-02-05T23:21:35.087Z,102974.78
2023-02-05T23:24:03.014Z,102965.41
2023-02-05T23:26:32.748Z,102973.44
2023-02-05T23:29:00.829Z,102966.47
2023-02-05T23:31:28.779Z,102960.59
2023-02-05T23:33:57.631Z,102961.72
2023-02-05T23:36:25.105Z,102966.16
2023-02-05T23:38:52.669Z,102962.25
2023-02-05T23:41:35.342Z,102962.41
2023-02-05T23:44:05.701Z,102963.44
2023-02-05T23:46:33.405Z,102968.22
2023-02-05T23:49:02.265Z,102970.66
2023-02-05T23:51:29.754Z,102971.88
2023-02-05T23:53:57.267Z,102967.47
2023-02-05T23:56:24.741Z,102968.22
2023-02-05T23:58:52.355Z,102976.13
